ZBHH METAR and TAF | Updated Today

ZBHH METAR

Baita International Airport

Observation time: 17 min. ago

ZBHH 060800Z VRB01MPS CAVOK 03/M15 Q1030 NOSIG

Need help? Read our tutorial on how to read METARs or read the parsed version below.

Baita International Airport (ZBHH) METAR

  • Weather conditions on Mon, 06 Dec 2021 08:00:00 +0000 (17 min. ago):
  • Present conditions: Dry
  • Clouds: Clear skies
  • Visibility: Greater than 10 km
  • Wind: Variable at 1 knots
  • Temperature: 3 celsius
  • Dew point: -15 celsius
  • Pressure: 1030 millibars
  • Remarks: None


Useful to know...

ZBHH TAF

Baita International Airport

TAF ZBHH 060310Z 0606/0706 23004MPS CAVOK TX04/0607Z TNM10/0622Z
Observation time: 5:07 hr. ago
Need help? Read our tutorial on how to read TAFs or read the parsed version below.

Parsed version of TAF for Baita International Airport (ZBHH)

  • From 06 December at 06:00 UTC, to day 07 of the month at 06:00 UTC
  • Visibility: Greater than 10 km
  • Wind: 230 degrees at 4

Airports near ZBHH

No airports found within 100nm radius.